sensor_id;sensor_type;location;lat;lon;timestamp;temperature;humidity
8832;DHT22;4452;50.756;4.472;2023-04-01T00:00:29;9.40;99.90
8832;DHT22;4452;50.756;4.472;2023-04-01T00:02:55;9.40;99.90
8832;DHT22;4452;50.756;4.472;2023-04-01T00:05:20;9.40;99.90
8832;DHT22;4452;50.756;4.472;2023-04-01T00:07:46;9.40;99.90
8832;DHT22;4452;50.756;4.472;2023-04-01T00:10:12;9.40;99.90
8832;DHT22;4452;50.756;4.472;2023-04-01T00:12:39;9.40;99.90
8832;DHT22;4452;50.756;4.472;2023-04-01T00:15:07;9.40;99.90
8832;DHT22;4452;50.756;4.472;2023-04-01T00:17:33;9.50;99.90
8832;DHT22;4452;50.756;4.472;2023-04-01T00:19:59;9.40;99.90
8832;DHT22;4452;50.756;4.472;2023-04-01T00:22:25;9.50;99.90
8832;DHT22;4452;50.756;4.472;2023-04-01T00:24:51;9.40;99.90
8832;DHT22;4452;50.756;4.472;2023-04-01T00:27:17;9.40;99.90
8832;DHT22;4452;50.756;4.472;2023-04-01T00:29:44;9.50;99.90
8832;DHT22;4452;50.756;4.472;2023-04-01T00:32:10;9.40;99.90
8832;DHT22;4452;50.756;4.472;2023-04-01T00:34:36;9.50;99.90
8832;DHT22;4452;50.756;4.472;2023-04-01T00:37:02;9.40;99.90
8832;DHT22;4452;50.756;4.472;2023-04-01T00:39:31;9.40;99.90
8832;DHT22;4452;50.756;4.472;2023-04-01T00:41:58;9.40;99.90
8832;DHT22;4452;50.756;4.472;2023-04-01T00:44:26;9.40;99.90
8832;DHT22;4452;50.756;4.472;2023-04-01T00:46:52;9.40;99.90
8832;DHT22;4452;50.756;4.472;2023-04-01T00:49:20;9.40;99.90
8832;DHT22;4452;50.756;4.472;2023-04-01T00:51:49;9.40;99.90
8832;DHT22;4452;50.756;4.472;2023-04-01T00:54:16;9.40;99.90
8832;DHT22;4452;50.756;4.472;2023-04-01T00:56:57;9.40;99.90
8832;DHT22;4452;50.756;4.472;2023-04-01T00:59:29;9.40;99.90
8832;DHT22;4452;50.756;4.472;2023-04-01T01:01:55;9.40;99.90
8832;DHT22;4452;50.756;4.472;2023-04-01T01:04:30;9.40;99.90
8832;DHT22;4452;50.756;4.472;2023-04-01T01:12:44;9.50;99.90
8832;DHT22;4452;50.756;4.472;2023-04-01T01:15:24;9.50;99.90
8832;DHT22;4452;50.756;4.472;2023-04-01T01:21:47;9.50;99.90
8832;DHT22;4452;50.756;4.472;2023-04-01T01:24:42;9.60;99.90
8832;DHT22;4452;50.756;4.472;2023-04-01T01:27:12;9.50;99.90
8832;DHT22;4452;50.756;4.472;2023-04-01T01:30:08;9.60;99.90
8832;DHT22;4452;50.756;4.472;2023-04-01T01:35:48;9.60;99.90
8832;DHT22;4452;50.756;4.472;2023-04-01T01:38:17;9.60;99.90
8832;DHT22;4452;50.756;4.472;2023-04-01T01:40:47;9.60;99.90
8832;DHT22;4452;50.756;4.472;2023-04-01T01:43:17;9.70;99.90
8832;DHT22;4452;50.756;4.472;2023-04-01T01:45:47;9.70;99.90
8832;DHT22;4452;50.756;4.472;2023-04-01T01:48:15;9.70;99.90
8832;DHT22;4452;50.756;4.472;2023-04-01T01:50:43;9.70;99.90
8832;DHT22;4452;50.756;4.472;2023-04-01T01:53:11;9.70;99.90
8832;DHT22;4452;50.756;4.472;2023-04-01T01:55:40;9.70;99.90
8832;DHT22;4452;50.756;4.472;2023-04-01T02:00:52;9.70;99.90
8832;DHT22;4452;50.756;4.472;2023-04-01T02:03:20;9.70;99.90
8832;DHT22;4452;50.756;4.472;2023-04-01T02:05:47;9.70;99.90
8832;DHT22;4452;50.756;4.472;2023-04-01T02:08:17;9.70;99.90
8832;DHT22;4452;50.756;4.472;2023-04-01T02:10:54;9.70;99.90
8832;DHT22;4452;50.756;4.472;2023-04-01T02:14:23;9.70;99.90
8832;DHT22;4452;50.756;4.472;2023-04-01T02:19:25;9.70;99.90
8832;DHT22;4452;50.756;4.472;2023-04-01T02:21:55;9.70;99.90
8832;DHT22;4452;50.756;4.472;2023-04-01T02:24:23;9.70;99.90
8832;DHT22;4452;50.756;4.472;2023-04-01T02:26:51;9.70;99.90
8832;DHT22;4452;50.756;4.472;2023-04-01T02:29:20;9.70;99.90
8832;DHT22;4452;50.756;4.472;2023-04-01T02:31:46;9.60;99.90
8832;DHT22;4452;50.756;4.472;2023-04-01T02:34:13;9.60;99.90
8832;DHT22;4452;50.756;4.472;2023-04-01T02:36:39;9.60;99.90
8832;DHT22;4452;50.756;4.472;2023-04-01T02:39:05;9.60;99.90
8832;DHT22;4452;50.756;4.472;2023-04-01T02:41:31;10.00;99.90
8832;DHT22;4452;50.756;4.472;2023-04-01T02:43:57;9.60;99.90
8832;DHT22;4452;50.756;4.472;2023-04-01T02:46:24;9.60;99.90
8832;DHT22;4452;50.756;4.472;2023-04-01T02:48:50;9.50;99.90
8832;DHT22;4452;50.756;4.472;2023-04-01T02:51:16;9.50;99.90
8832;DHT22;4452;50.756;4.472;2023-04-01T02:53:41;9.50;99.90
8832;DHT22;4452;50.756;4.472;2023-04-01T02:56:07;9.50;99.90
8832;DHT22;4452;50.756;4.472;2023-04-01T02:58:32;9.50;99.90
8832;DHT22;4452;50.756;4.472;2023-04-01T03:00:58;9.50;99.90
8832;DHT22;4452;50.756;4.472;2023-04-01T03:03:24;9.50;99.90
8832;DHT22;4452;50.756;4.472;2023-04-01T03:05:50;9.40;99.90
8832;DHT22;4452;50.756;4.472;2023-04-01T03:08:15;9.40;99.90
8832;DHT22;4452;50.756;4.472;2023-04-01T03:10:41;9.80;99.90
8832;DHT22;4452;50.756;4.472;2023-04-01T03:13:07;9.40;99.90
8832;DHT22;4452;50.756;4.472;2023-04-01T03:15:32;9.40;99.90
8832;DHT22;4452;50.756;4.472;2023-04-01T03:17:58;9.40;99.90
8832;DHT22;4452;50.756;4.472;2023-04-01T03:20:24;9.60;99.90
8832;DHT22;4452;50.756;4.472;2023-04-01T03:22:49;9.50;99.90
8832;DHT22;4452;50.756;4.472;2023-04-01T03:25:15;9.40;99.90
8832;DHT22;4452;50.756;4.472;2023-04-01T03:27:40;9.20;99.90
8832;DHT22;4452;50.756;4.472;2023-04-01T03:30:07;9.40;99.90
8832;DHT22;4452;50.756;4.472;2023-04-01T03:32:32;9.40;99.90
8832;DHT22;4452;50.756;4.472;2023-04-01T03:34:58;9.40;99.90
8832;DHT22;4452;50.756;4.472;2023-04-01T03:37:24;9.40;99.90
8832;DHT22;4452;50.756;4.472;2023-04-01T03:39:50;9.40;99.90
8832;DHT22;4452;50.756;4.472;2023-04-01T03:42:16;9.40;99.90
8832;DHT22;4452;50.756;4.472;2023-04-01T03:44:41;9.40;99.90
8832;DHT22;4452;50.756;4.472;2023-04-01T03:47:07;9.30;99.90
8832;DHT22;4452;50.756;4.472;2023-04-01T03:49:34;9.50;99.90
8832;DHT22;4452;50.756;4.472;2023-04-01T03:52:00;9.30;99.90
8832;DHT22;4452;50.756;4.472;2023-04-01T03:54:26;9.30;99.90
8832;DHT22;4452;50.756;4.472;2023-04-01T03:56:51;9.70;99.90
8832;DHT22;4452;50.756;4.472;2023-04-01T03:59:17;9.20;99.90
8832;DHT22;4452;50.756;4.472;2023-04-01T04:01:42;9.60;99.90
8832;DHT22;4452;50.756;4.472;2023-04-01T04:04:11;9.20;99.90
8832;DHT22;4452;50.756;4.472;2023-04-01T04:06:38;9.70;99.90
8832;DHT22;4452;50.756;4.472;2023-04-01T04:09:03;9.60;99.90
8832;DHT22;4452;50.756;4.472;2023-04-01T04:11:30;9.30;99.90
8832;DHT22;4452;50.756;4.472;2023-04-01T04:13:56;9.40;99.90
8832;DHT22;4452;50.756;4.472;2023-04-01T04:16:22;9.40;99.90
8832;DHT22;4452;50.756;4.472;2023-04-01T04:18:48;9.40;99.90
8832;DHT22;4452;50.756;4.472;2023-04-01T04:21:14;9.40;99.90
8832;DHT22;4452;50.756;4.472;2023-04-01T04:23:41;9.40;99.90
8832;DHT22;4452;50.756;4.472;2023-04-01T04:26:12;9.40;99.90
8832;DHT22;4452;50.756;4.472;2023-04-01T04:28:38;9.80;99.90
8832;DHT22;4452;50.756;4.472;2023-04-01T04:31:04;9.40;99.90
8832;DHT22;4452;50.756;4.472;2023-04-01T04:33:32;9.40;99.90
8832;DHT22;4452;50.756;4.472;2023-04-01T04:35:58;9.60;99.90
8832;DHT22;4452;50.756;4.472;2023-04-01T04:38:25;9.40;99.90
8832;DHT22;4452;50.756;4.472;2023-04-01T04:40:50;9.40;99.90
8832;DHT22;4452;50.756;4.472;2023-04-01T04:43:17;9.40;99.90
8832;DHT22;4452;50.756;4.472;2023-04-01T04:45:43;9.40;99.90
8832;DHT22;4452;50.756;4.472;2023-04-01T04:48:10;9.40;99.90
8832;DHT22;4452;50.756;4.472;2023-04-01T04:50:36;9.40;99.90
8832;DHT22;4452;50.756;4.472;2023-04-01T04:53:02;9.40;99.90
8832;DHT22;4452;50.756;4.472;2023-04-01T04:55:28;9.40;99.90
8832;DHT22;4452;50.756;4.472;2023-04-01T04:57:54;9.40;99.90
8832;DHT22;4452;50.756;4.472;2023-04-01T05:00:19;9.40;99.90
8832;DHT22;4452;50.756;4.472;2023-04-01T05:02:45;9.40;99.90
8832;DHT22;4452;50.756;4.472;2023-04-01T05:05:10;9.80;99.90
8832;DHT22;4452;50.756;4.472;2023-04-01T05:07:36;9.40;99.90
8832;DHT22;4452;50.756;4.472;2023-04-01T05:10:02;9.50;99.90
8832;DHT22;4452;50.756;4.472;2023-04-01T05:12:28;9.40;99.90
8832;DHT22;4452;50.756;4.472;2023-04-01T05:14:54;9.40;99.90
8832;DHT22;4452;50.756;4.472;2023-04-01T05:17:20;9.40;99.90
8832;DHT22;4452;50.756;4.472;2023-04-01T05:19:45;9.60;99.90
8832;DHT22;4452;50.756;4.472;2023-04-01T05:22:11;9.50;99.90
8832;DHT22;4452;50.756;4.472;2023-04-01T05:24:36;9.40;99.90
8832;DHT22;4452;50.756;4.472;2023-04-01T05:27:02;9.40;99.90
8832;DHT22;4452;50.756;4.472;2023-04-01T05:29:28;9.90;99.90
8832;DHT22;4452;50.756;4.472;2023-04-01T05:31:53;9.40;99.90
8832;DHT22;4452;50.756;4.472;2023-04-01T05:34:19;9.40;99.90
8832;DHT22;4452;50.756;4.472;2023-04-01T05:36:45;9.40;99.90
8832;DHT22;4452;50.756;4.472;2023-04-01T05:39:11;9.50;99.90
8832;DHT22;4452;50.756;4.472;2023-04-01T05:41:37;9.40;99.90
8832;DHT22;4452;50.756;4.472;2023-04-01T05:44:03;9.70;99.90
8832;DHT22;4452;50.756;4.472;2023-04-01T05:46:29;9.40;99.90
8832;DHT22;4452;50.756;4.472;2023-04-01T05:48:55;9.80;99.90
8832;DHT22;4452;50.756;4.472;2023-04-01T05:51:21;9.70;99.90
8832;DHT22;4452;50.756;4.472;2023-04-01T05:53:46;9.50;99.90
8832;DHT22;4452;50.756;4.472;2023-04-01T05:56:12;9.40;99.90
8832;DHT22;4452;50.756;4.472;2023-04-01T05:58:38;9.80;99.90
8832;DHT22;4452;50.756;4.472;2023-04-01T06:01:07;9.40;99.90
8832;DHT22;4452;50.756;4.472;2023-04-01T06:03:33;9.40;99.90
8832;DHT22;4452;50.756;4.472;2023-04-01T06:05:59;9.40;99.90
8832;DHT22;4452;50.756;4.472;2023-04-01T06:08:27;9.40;99.90
8832;DHT22;4452;50.756;4.472;2023-04-01T06:22:06;9.40;99.90
8832;DHT22;4452;50.756;4.472;2023-04-01T06:33:15;9.40;99.90
8832;DHT22;4452;50.756;4.472;2023-04-01T06:36:08;9.40;99.90
8832;DHT22;4452;50.756;4.472;2023-04-01T06:38:44;9.40;99.90
8832;DHT22;4452;50.756;4.472;2023-04-01T06:50:07;9.40;99.90
8832;DHT22;4452;50.756;4.472;2023-04-01T06:52:55;9.40;99.90
8832;DHT22;4452;50.756;4.472;2023-04-01T06:58:30;9.40;99.90
8832;DHT22;4452;50.756;4.472;2023-04-01T07:00:58;9.40;99.90
8832;DHT22;4452;50.756;4.472;2023-04-01T07:03:32;9.50;99.90
8832;DHT22;4452;50.756;4.472;2023-04-01T07:06:09;9.50;99.90
8832;DHT22;4452;50.756;4.472;2023-04-01T07:08:38;9.40;99.90
8832;DHT22;4452;50.756;4.472;2023-04-01T07:11:26;9.80;99.90
8832;DHT22;4452;50.756;4.472;2023-04-01T07:16:25;9.40;99.90
8832;DHT22;4452;50.756;4.472;2023-04-01T07:19:02;9.80;99.90
8832;DHT22;4452;50.756;4.472;2023-04-01T07:21:49;9.40;99.90
8832;DHT22;4452;50.756;4.472;2023-04-01T07:24:37;9.40;99.90
8832;DHT22;4452;50.756;4.472;2023-04-01T07:27:09;9.70;99.90
8832;DHT22;4452;50.756;4.472;2023-04-01T07:29:36;9.60;99.90
8832;DHT22;4452;50.756;4.472;2023-04-01T07:48:45;9.60;99.90
8832;DHT22;4452;50.756;4.472;2023-04-01T07:54:38;9.60;99.90
8832;DHT22;4452;50.756;4.472;2023-04-01T07:57:15;9.60;99.90
8832;DHT22;4452;50.756;4.472;2023-04-01T08:00:18;9.60;99.90
8832;DHT22;4452;50.756;4.472;2023-04-01T08:03:11;9.80;99.90
8832;DHT22;4452;50.756;4.472;2023-04-01T08:05:55;9.70;99.90
8832;DHT22;4452;50.756;4.472;2023-04-01T08:11:24;9.60;99.90
8832;DHT22;4452;50.756;4.472;2023-04-01T08:17:07;9.60;99.90
8832;DHT22;4452;50.756;4.472;2023-04-01T08:22:27;9.70;99.90
8832;DHT22;4452;50.756;4.472;2023-04-01T08:24:57;9.70;99.90
8832;DHT22;4452;50.756;4.472;2023-04-01T08:27:36;9.80;99.90
8832;DHT22;4452;50.756;4.472;2023-04-01T08:32:36;9.90;99.90
8832;DHT22;4452;50.756;4.472;2023-04-01T08:35:19;10.00;99.90
8832;DHT22;4452;50.756;4.472;2023-04-01T08:37:48;10.00;99.90
8832;DHT22;4452;50.756;4.472;2023-04-01T08:43:09;10.00;99.90
8832;DHT22;4452;50.756;4.472;2023-04-01T08:54:29;9.90;99.90
8832;DHT22;4452;50.756;4.472;2023-04-01T08:57:08;9.80;99.90
8832;DHT22;4452;50.756;4.472;2023-04-01T09:05:12;9.80;99.90
8832;DHT22;4452;50.756;4.472;2023-04-01T09:35:24;10.20;99.90
8832;DHT22;4452;50.756;4.472;2023-04-01T09:38:27;10.00;99.90
8832;DHT22;4452;50.756;4.472;2023-04-01T09:41:24;10.00;99.90
8832;DHT22;4452;50.756;4.472;2023-04-01T09:54:58;10.20;99.90
8832;DHT22;4452;50.756;4.472;2023-04-01T09:57:53;10.20;99.90
8832;DHT22;4452;50.756;4.472;2023-04-01T10:00:46;10.20;99.90
8832;DHT22;4452;50.756;4.472;2023-04-01T10:27:40;10.90;99.90
8832;DHT22;4452;50.756;4.472;2023-04-01T11:07:13;10.80;99.90
8832;DHT22;4452;50.756;4.472;2023-04-01T11:10:09;10.80;99.90
8832;DHT22;4452;50.756;4.472;2023-04-01T11:21:11;10.70;99.90
8832;DHT22;4452;50.756;4.472;2023-04-01T11:26:15;10.60;99.90
8832;DHT22;4452;50.756;4.472;2023-04-01T11:31:28;10.60;99.90
8832;DHT22;4452;50.756;4.472;2023-04-01T11:41:34;10.70;99.90
8832;DHT22;4452;50.756;4.472;2023-04-01T11:44:17;10.70;99.90
8832;DHT22;4452;50.756;4.472;2023-04-01T11:47:15;11.00;99.90
8832;DHT22;4452;50.756;4.472;2023-04-01T11:58:23;10.80;99.90
8832;DHT22;4452;50.756;4.472;2023-04-01T12:08:51;11.00;99.90
8832;DHT22;4452;50.756;4.472;2023-04-01T12:14:27;11.00;99.90
8832;DHT22;4452;50.756;4.472;2023-04-01T12:17:04;10.90;99.90
8832;DHT22;4452;50.756;4.472;2023-04-01T12:19:53;11.20;99.90
8832;DHT22;4452;50.756;4.472;2023-04-01T12:27:38;10.70;99.90
8832;DHT22;4452;50.756;4.472;2023-04-01T12:33:16;10.60;99.90
8832;DHT22;4452;50.756;4.472;2023-04-01T12:47:14;10.50;99.90
8832;DHT22;4452;50.756;4.472;2023-04-01T12:52:25;10.30;99.90
8832;DHT22;4452;50.756;4.472;2023-04-01T13:01:10;10.20;99.90
8832;DHT22;4452;50.756;4.472;2023-04-01T13:06:57;10.10;99.90
8832;DHT22;4452;50.756;4.472;2023-04-01T13:12:25;10.10;99.90
8832;DHT22;4452;50.756;4.472;2023-04-01T13:15:16;10.20;99.90
8832;DHT22;4452;50.756;4.472;2023-04-01T13:17:48;10.10;99.90
8832;DHT22;4452;50.756;4.472;2023-04-01T13:28:26;10.10;99.90
8832;DHT22;4452;50.756;4.472;2023-04-01T13:31:22;10.20;99.90
8832;DHT22;4452;50.756;4.472;2023-04-01T13:34:17;10.10;99.90
8832;DHT22;4452;50.756;4.472;2023-04-01T13:37:10;10.00;99.90
8832;DHT22;4452;50.756;4.472;2023-04-01T13:43:04;9.90;99.90
8832;DHT22;4452;50.756;4.472;2023-04-01T13:46:08;9.90;99.90
8832;DHT22;4452;50.756;4.472;2023-04-01T13:48:52;9.90;99.90
8832;DHT22;4452;50.756;4.472;2023-04-01T14:13:34;10.00;99.90
8832;DHT22;4452;50.756;4.472;2023-04-01T14:19:00;9.90;99.90
8832;DHT22;4452;50.756;4.472;2023-04-01T14:21:33;9.80;99.90
8832;DHT22;4452;50.756;4.472;2023-04-01T14:24:31;9.80;99.90
8832;DHT22;4452;50.756;4.472;2023-04-01T14:27:09;9.90;99.90
8832;DHT22;4452;50.756;4.472;2023-04-01T14:30:02;10.00;99.90
8832;DHT22;4452;50.756;4.472;2023-04-01T14:35:50;10.20;99.90
8832;DHT22;4452;50.756;4.472;2023-04-01T14:38:24;10.30;99.90
8832;DHT22;4452;50.756;4.472;2023-04-01T14:41:02;10.30;99.90
8832;DHT22;4452;50.756;4.472;2023-04-01T14:44:11;10.20;99.90
8832;DHT22;4452;50.756;4.472;2023-04-01T14:49:35;10.20;99.90
8832;DHT22;4452;50.756;4.472;2023-04-01T14:52:11;10.10;99.90
8832;DHT22;4452;50.756;4.472;2023-04-01T14:54:42;10.20;99.90
8832;DHT22;4452;50.756;4.472;2023-04-01T14:57:15;10.20;99.90
8832;DHT22;4452;50.756;4.472;2023-04-01T15:08:29;10.10;99.90
8832;DHT22;4452;50.756;4.472;2023-04-01T15:16:42;9.90;99.90
8832;DHT22;4452;50.756;4.472;2023-04-01T15:22:32;10.00;99.90
8832;DHT22;4452;50.756;4.472;2023-04-01T15:27:58;10.00;99.90
8832;DHT22;4452;50.756;4.472;2023-04-01T15:30:33;9.90;99.90
8832;DHT22;4452;50.756;4.472;2023-04-01T15:33:20;9.80;99.90
8832;DHT22;4452;50.756;4.472;2023-04-01T15:38:48;9.70;99.90
8832;DHT22;4452;50.756;4.472;2023-04-01T15:41:43;10.00;99.90
8832;DHT22;4452;50.756;4.472;2023-04-01T15:44:42;9.70;99.90
8832;DHT22;4452;50.756;4.472;2023-04-01T15:53:13;9.70;99.90
8832;DHT22;4452;50.756;4.472;2023-04-01T15:56:00;9.60;99.90
8832;DHT22;4452;50.756;4.472;2023-04-01T16:01:27;9.80;99.90
8832;DHT22;4452;50.756;4.472;2023-04-01T16:04:06;9.70;99.90
8832;DHT22;4452;50.756;4.472;2023-04-01T16:12:22;9.70;99.90
8832;DHT22;4452;50.756;4.472;2023-04-01T16:20:51;9.50;99.90
8832;DHT22;4452;50.756;4.472;2023-04-01T16:23:30;9.50;99.90
8832;DHT22;4452;50.756;4.472;2023-04-01T16:26:22;9.40;99.90
8832;DHT22;4452;50.756;4.472;2023-04-01T16:28:57;9.50;99.90
8832;DHT22;4452;50.756;4.472;2023-04-01T16:31:46;9.30;99.90
8832;DHT22;4452;50.756;4.472;2023-04-01T16:34:21;9.30;99.90
8832;DHT22;4452;50.756;4.472;2023-04-01T16:37:07;9.20;99.90
8832;DHT22;4452;50.756;4.472;2023-04-01T16:45:53;9.20;99.90
8832;DHT22;4452;50.756;4.472;2023-04-01T16:48:34;9.20;99.90
8832;DHT22;4452;50.756;4.472;2023-04-01T16:51:19;9.20;99.90
8832;DHT22;4452;50.756;4.472;2023-04-01T16:54:02;9.20;99.90
8832;DHT22;4452;50.756;4.472;2023-04-01T16:56:39;9.20;99.90
8832;DHT22;4452;50.756;4.472;2023-04-01T16:59:27;9.10;99.90
8832;DHT22;4452;50.756;4.472;2023-04-01T17:02:13;9.20;99.90
8832;DHT22;4452;50.756;4.472;2023-04-01T17:05:03;9.20;99.90
8832;DHT22;4452;50.756;4.472;2023-04-01T17:11:03;9.20;99.90
8832;DHT22;4452;50.756;4.472;2023-04-01T17:13:52;9.20;99.90
8832;DHT22;4452;50.756;4.472;2023-04-01T17:22:21;9.20;99.90
8832;DHT22;4452;50.756;4.472;2023-04-01T17:30:38;9.20;99.90
8832;DHT22;4452;50.756;4.472;2023-04-01T18:03:54;9.20;99.90
8832;DHT22;4452;50.756;4.472;2023-04-01T18:09:25;9.20;99.90
8832;DHT22;4452;50.756;4.472;2023-04-01T18:17:25;9.20;99.90
8832;DHT22;4452;50.756;4.472;2023-04-01T18:20:20;9.20;99.90
8832;DHT22;4452;50.756;4.472;2023-04-01T18:22:58;9.20;99.90
8832;DHT22;4452;50.756;4.472;2023-04-01T18:25:34;9.20;99.90
8832;DHT22;4452;50.756;4.472;2023-04-01T18:33:48;9.20;99.90
8832;DHT22;4452;50.756;4.472;2023-04-01T18:36:37;9.30;99.90
8832;DHT22;4452;50.756;4.472;2023-04-01T18:39:18;9.20;99.90
8832;DHT22;4452;50.756;4.472;2023-04-01T18:44:59;9.30;99.90
8832;DHT22;4452;50.756;4.472;2023-04-01T18:47:45;9.20;99.90
8832;DHT22;4452;50.756;4.472;2023-04-01T18:50:18;9.20;99.90
8832;DHT22;4452;50.756;4.472;2023-04-01T18:52:46;9.20;99.90
8832;DHT22;4452;50.756;4.472;2023-04-01T18:55:40;9.20;99.90
8832;DHT22;4452;50.756;4.472;2023-04-01T19:04:07;9.30;99.90
8832;DHT22;4452;50.756;4.472;2023-04-01T19:06:45;9.20;99.90
8832;DHT22;4452;50.756;4.472;2023-04-01T19:09:20;9.30;99.90
8832;DHT22;4452;50.756;4.472;2023-04-01T19:12:44;9.20;99.90
8832;DHT22;4452;50.756;4.472;2023-04-01T19:20:53;9.30;99.90
8832;DHT22;4452;50.756;4.472;2023-04-01T19:26:24;9.30;99.90
8832;DHT22;4452;50.756;4.472;2023-04-01T19:31:23;9.40;99.90
8832;DHT22;4452;50.756;4.472;2023-04-01T19:34:22;9.20;99.90
8832;DHT22;4452;50.756;4.472;2023-04-01T19:36:54;9.30;99.90
8832;DHT22;4452;50.756;4.472;2023-04-01T19:39:37;9.30;99.90
8832;DHT22;4452;50.756;4.472;2023-04-01T19:42:31;9.20;99.90
8832;DHT22;4452;50.756;4.472;2023-04-01T19:50:46;9.20;99.90
8832;DHT22;4452;50.756;4.472;2023-04-01T19:56:04;9.20;99.90
8832;DHT22;4452;50.756;4.472;2023-04-01T20:01:11;9.20;99.90
8832;DHT22;4452;50.756;4.472;2023-04-01T20:03:48;9.30;99.90
8832;DHT22;4452;50.756;4.472;2023-04-01T20:14:27;9.20;99.90
8832;DHT22;4452;50.756;4.472;2023-04-01T20:17:15;9.20;99.90
8832;DHT22;4452;50.756;4.472;2023-04-01T20:26:11;9.10;99.90
8832;DHT22;4452;50.756;4.472;2023-04-01T20:31:25;9.20;99.90
8832;DHT22;4452;50.756;4.472;2023-04-01T20:34:05;9.20;99.90
8832;DHT22;4452;50.756;4.472;2023-04-01T20:39:58;9.20;99.90
8832;DHT22;4452;50.756;4.472;2023-04-01T20:42:57;9.20;99.90
8832;DHT22;4452;50.756;4.472;2023-04-01T20:50:57;9.30;99.90
8832;DHT22;4452;50.756;4.472;2023-04-01T20:53:42;9.30;99.90
8832;DHT22;4452;50.756;4.472;2023-04-01T20:59:01;9.30;99.90
8832;DHT22;4452;50.756;4.472;2023-04-01T21:04:33;9.40;99.90
8832;DHT22;4452;50.756;4.472;2023-04-01T21:15:30;9.40;99.90
8832;DHT22;4452;50.756;4.472;2023-04-01T21:18:21;9.40;99.90
8832;DHT22;4452;50.756;4.472;2023-04-01T21:21:24;9.50;99.90
8832;DHT22;4452;50.756;4.472;2023-04-01T21:24:23;9.50;99.90
8832;DHT22;4452;50.756;4.472;2023-04-01T21:30:14;9.40;99.90
8832;DHT22;4452;50.756;4.472;2023-04-01T21:35:35;9.80;99.90
8832;DHT22;4452;50.756;4.472;2023-04-01T21:43:35;9.70;99.90
8832;DHT22;4452;50.756;4.472;2023-04-01T21:46:27;9.70;99.90
8832;DHT22;4452;50.756;4.472;2023-04-01T21:54:48;9.70;99.90
8832;DHT22;4452;50.756;4.472;2023-04-01T22:00:38;9.80;99.90
8832;DHT22;4452;50.756;4.472;2023-04-01T22:11:19;9.90;99.90
8832;DHT22;4452;50.756;4.472;2023-04-01T22:13:50;10.20;99.90
8832;DHT22;4452;50.756;4.472;2023-04-01T22:22:00;10.00;99.90
8832;DHT22;4452;50.756;4.472;2023-04-01T22:27:26;10.00;99.90
8832;DHT22;4452;50.756;4.472;2023-04-01T22:32:46;10.00;99.90
8832;DHT22;4452;50.756;4.472;2023-04-01T22:35:54;10.00;99.90
8832;DHT22;4452;50.756;4.472;2023-04-01T22:41:19;10.20;99.90
8832;DHT22;4452;50.756;4.472;2023-04-01T22:43:54;10.00;99.90
8832;DHT22;4452;50.756;4.472;2023-04-01T22:49:18;10.00;99.90
8832;DHT22;4452;50.756;4.472;2023-04-01T22:51:57;10.00;99.90
8832;DHT22;4452;50.756;4.472;2023-04-01T22:54:31;10.00;99.90
8832;DHT22;4452;50.756;4.472;2023-04-01T22:57:04;10.00;99.90
8832;DHT22;4452;50.756;4.472;2023-04-01T23:02:11;10.10;99.90
8832;DHT22;4452;50.756;4.472;2023-04-01T23:04:41;10.00;99.90
8832;DHT22;4452;50.756;4.472;2023-04-01T23:09:56;10.00;99.90
8832;DHT22;4452;50.756;4.472;2023-04-01T23:12:25;9.90;99.90
8832;DHT22;4452;50.756;4.472;2023-04-01T23:14:56;9.90;99.90
8832;DHT22;4452;50.756;4.472;2023-04-01T23:21:04;9.80;99.90
8832;DHT22;4452;50.756;4.472;2023-04-01T23:26:10;9.80;99.90
8832;DHT22;4452;50.756;4.472;2023-04-01T23:28:44;9.70;99.90
8832;DHT22;4452;50.756;4.472;2023-04-01T23:33:54;9.70;99.90
8832;DHT22;4452;50.756;4.472;2023-04-01T23:36:21;9.70;99.90
8832;DHT22;4452;50.756;4.472;2023-04-01T23:38:48;9.70;99.90
8832;DHT22;4452;50.756;4.472;2023-04-01T23:41:27;9.70;99.90
8832;DHT22;4452;50.756;4.472;2023-04-01T23:44:12;9.60;99.90
8832;DHT22;4452;50.756;4.472;2023-04-01T23:46:40;9.60;99.90
8832;DHT22;4452;50.756;4.472;2023-04-01T23:49:12;9.80;99.90
8832;DHT22;4452;50.756;4.472;2023-04-01T23:51:50;9.60;99.90
8832;DHT22;4452;50.756;4.472;2023-04-01T23:54:31;9.60;99.90
8832;DHT22;4452;50.756;4.472;2023-04-01T23:56:58;9.60;99.90
8832;DHT22;4452;50.756;4.472;2023-04-01T23:59:29;9.60;99.90
